Portada
METAR-TAF:

METAR-TAF

Aeroports :

Pula, Croàcia

latitud: 44-54N, longitud: 013-55E, altitud: 63 m

Observació

L'informe es va fer fa 23 minuts, a les 22:30 UTC
Vent 7 kt del Nord-Est
Temperatura 26°C
Humitat 61%
Pressió 1016 hPa
Visibilitat 10 km o més
sense núvols per sota de 1500 mi sense presència de cumulonimbus.

METAR: LDPL 182230Z AUTO 04007KT CAVOK 26/18 Q1016

Hora: 00:53 (22:53 UTC)

Pronòstic

L'informe es va fer fa 5 hores i 28 minuts, a les 17:25 UTC
Pronòstic vàlid del 18 a les 18 UTC al 19 a les 18 UTC
Vent 7 kt del Nord-Est
Visibilitat 10 km o més
sense núvols per sota de 1500 mi sense presència de cumulonimbus.
Evolucionant progressivament
l' 19 a les 05 UTC al 19 a les 07 UTC
Vent 10 kt del Est/Nord-Est
Evolucionant progressivament
l' 19 a les 12 UTC al 19 a les 14 UTC
Vent 9 kt del Oest/Nord-Oest

TAF: LDPL 181725Z 1818/1918 04007KT CAVOK TX35/1913Z TN25/1903Z BECMG 1905/1907 07010KT BECMG 1912/1914 30009KT

Observacions i pronòstics meteorològics de més de 4000 aeroports (METAR i TAF).

Les estacions disponibles són els punts grocs i vermells al mapa.

Posi el ratolí al punt desitjat per veure el nom de l'estació.

Feu clic per veure les observacions i els pronòstics meteorològics.

Per canviar el mapa: feu clic els botons verds amb una creu de color negre per apropar; al botó verd amb un guió per allunyar la imatge; o en les fletxes verdes per a mapes adjacents.


METAR-TAF: